Time;durP1;ratioP1;P1;durP2;ratioP2;P2;SDS_P1;SDS_P2;PMS_P1;PMS_P2;Temp;Humidity;BMP_temperature;BMP_pressure;BME280_temperature;BME280_humidity;BME280_pressure;Samples;Min_cycle;Max_cycle;Signal;HPM_P1;HPM_P2
2021/06/05 00:00:39;;;;;;;10.70;9.55;;;19.90;90.10;;;;;;2055572;28;20042;-85
2021/06/05 00:01:45;;;;;;;;;;;19.90;90.10;;;;;;2066262;28;20184;-85
2021/06/05 00:02:46;;;;;;;10.65;8.60;;;19.90;90.00;;;;;;2072146;28;19909;-86
2021/06/05 00:03:47;;;;;;;11.23;9.32;;;19.90;90.00;;;;;;2071338;28;20112;-86
2021/06/05 00:04:49;;;;;;;11.27;9.60;;;19.90;90.00;;;;;;2065897;28;20575;-86
2021/06/05 00:05:56;;;;;;;12.82;10.10;;;19.90;90.00;;;;;;2065008;28;20121;-86
2021/06/05 00:06:56;;;;;;;12.18;9.90;;;19.90;90.00;;;;;;2063049;28;20448;-85
2021/06/05 00:07:57;;;;;;;11.10;9.85;;;19.90;90.00;;;;;;2072943;28;20092;-86
2021/06/05 00:08:58;;;;;;;11.52;10.13;;;19.90;90.00;;;;;;2070421;28;20026;-86
2021/06/05 00:09:59;;;;;;;11.68;10.02;;;19.90;90.30;;;;;;2070014;28;20030;-86
2021/06/05 00:11:05;;;;;;;11.57;10.20;;;19.90;90.10;;;;;;2071575;28;20029;-85
2021/06/05 00:12:08;;;;;;;12.32;10.60;;;19.90;90.10;;;;;;2081481;28;20029;-86
2021/06/05 00:13:14;;;;;;;10.93;9.60;;;19.90;90.10;;;;;;2073644;28;20578;-87
2021/06/05 00:14:15;;;;;;;11.43;10.20;;;19.90;90.10;;;;;;2073723;28;20045;-87
2021/06/05 00:15:22;;;;;;;11.52;9.90;;;19.90;90.10;;;;;;2071500;28;20089;-87
2021/06/05 00:16:30;;;;;;;11.90;10.07;;;19.90;90.40;;;;;;2076400;28;20128;-86
2021/06/05 00:17:31;;;;;;;12.38;10.68;;;19.90;90.10;;;;;;2075792;28;20033;-87
2021/06/05 00:18:32;;;;;;;12.35;10.25;;;19.90;90.10;;;;;;2064121;28;20121;-87
2021/06/05 00:19:32;;;;;;;12.25;10.30;;;19.90;90.10;;;;;;2063011;28;20109;-87
2021/06/05 00:20:35;;;;;;;11.25;10.05;;;19.90;90.20;;;;;;2065976;28;20469;-86
2021/06/05 00:21:35;;;;;;;12.18;10.40;;;19.90;90.20;;;;;;2065237;28;20045;-87
2021/06/05 00:22:36;;;;;;;11.68;10.15;;;19.90;90.20;;;;;;2056850;28;20038;-87
2021/06/05 00:23:37;;;;;;;11.80;10.43;;;19.90;90.20;;;;;;2065280;28;20428;-87
2021/06/05 00:24:40;;;;;;;11.18;9.98;;;19.90;90.20;;;;;;2072941;28;20042;-86
2021/06/05 00:25:41;;;;;;;11.98;10.07;;;19.90;90.50;;;;;;2072506;28;20033;-87
2021/06/05 00:26:43;;;;;;;12.40;11.00;;;19.90;90.20;;;;;;2077828;28;20034;-87
2021/06/05 00:27:43;;;;;;;12.75;10.50;;;19.90;90.20;;;;;;2071940;28;20484;-87
2021/06/05 00:28:44;;;;;;;12.70;10.88;;;19.90;90.20;;;;;;2064436;28;20034;-87
2021/06/05 00:29:44;;;;;;;12.48;11.10;;;19.90;90.20;;;;;;2079424;28;20063;-86
2021/06/05 00:30:46;;;;;;;12.55;11.15;;;19.90;90.20;;;;;;2080487;28;20025;-87
2021/06/05 00:31:46;;;;;;;12.00;10.68;;;19.90;90.20;;;;;;2079874;28;20025;-87
2021/06/05 00:32:47;;;;;;;11.32;9.85;;;19.90;90.20;;;;;;2081192;28;20029;-87
2021/06/05 00:33:48;;;;;;;12.25;10.93;;;19.90;90.30;;;;;;2065835;28;20129;-87
2021/06/05 00:34:48;;;;;;;13.18;10.98;;;19.90;90.30;;;;;;2050236;28;20055;-87
2021/06/05 00:35:50;;;;;;;12.50;10.30;;;19.90;90.30;;;;;;2065086;28;20030;-86
2021/06/05 00:36:51;;;;;;;12.57;10.75;;;19.90;90.30;;;;;;2076846;28;20034;-85
2021/06/05 00:37:52;;;;;;;12.48;10.60;;;19.80;90.30;;;;;;2069830;28;20119;-85
2021/06/05 00:38:54;;;;;;;13.07;11.23;;;19.80;90.30;;;;;;2064541;28;20023;-85
2021/06/05 00:39:54;;;;;;;12.10;10.50;;;19.80;90.30;;;;;;2065240;28;20030;-85
2021/06/05 00:40:57;;;;;;;12.35;11.05;;;19.80;90.40;;;;;;2063467;28;20176;-85
2021/06/05 00:41:58;;;;;;;12.25;10.27;;;19.80;90.40;;;;;;2064595;28;20026;-86
2021/06/05 00:43:00;;;;;;;13.73;11.35;;;19.70;90.40;;;;;;2066168;28;20061;-85
2021/06/05 00:44:05;;;;;;;12.05;10.70;;;19.70;90.40;;;;;;2074216;28;20435;-85
2021/06/05 00:45:08;;;;;;;12.43;10.43;;;19.70;90.40;;;;;;2076858;28;20772;-86
2021/06/05 00:46:10;;;;;;;12.38;10.55;;;19.70;90.40;;;;;;2084473;28;20079;-85
2021/06/05 00:47:10;;;;;;;12.38;11.02;;;19.70;90.40;;;;;;2086170;28;20029;-86
2021/06/05 00:48:13;;;;;;;12.70;10.57;;;19.70;90.40;;;;;;2069178;28;20561;-85
2021/06/05 00:49:13;;;;;;;13.32;11.02;;;19.60;90.40;;;;;;2061276;28;20035;-86
2021/06/05 00:50:14;;;;;;;13.27;10.77;;;19.60;90.40;;;;;;2069709;28;20026;-85
2021/06/05 00:51:17;;;;;;;12.07;10.77;;;19.60;90.50;;;;;;2066982;28;20366;-84
2021/06/05 00:52:21;;;;;;;12.13;10.82;;;19.60;90.50;;;;;;2079474;28;20029;-84
2021/06/05 00:53:25;;;;;;;12.75;11.13;;;19.60;90.50;;;;;;2080062;28;20116;-83
2021/06/05 00:54:26;;;;;;;14.68;11.50;;;19.50;90.50;;;;;;2080676;28;20075;-83
2021/06/05 00:55:29;;;;;;;13.10;11.70;;;19.50;90.50;;;;;;2077385;28;20041;-83
2021/06/05 00:56:30;;;;;;;13.75;11.60;;;19.50;90.70;;;;;;2080304;28;20014;-83
2021/06/05 00:57:31;;;;;;;14.15;12.63;;;19.40;90.60;;;;;;2063538;28;20034;-83
2021/06/05 00:58:31;;;;;;;13.07;11.75;;;19.40;90.60;;;;;;2056208;28;20456;-83
2021/06/05 00:59:33;;;;;;;14.50;12.50;;;19.40;90.70;;;;;;2056161;28;20035;-84
2021/06/05 01:00:40;;;;;;;15.43;13.80;;;19.40;90.70;;;;;;2071285;28;20026;-83
2021/06/05 01:01:40;;;;;;;15.55;13.88;;;19.30;90.70;;;;;;2079877;28;20282;-83
2021/06/05 01:02:41;;;;;;;18.80;14.48;;;19.30;90.70;;;;;;2073538;28;20034;-82
2021/06/05 01:03:42;;;;;;;18.08;15.75;;;19.30;90.70;;;;;;2072818;28;20562;-83
2021/06/05 01:04:43;;;;;;;17.98;16.05;;;19.30;90.70;;;;;;2063658;28;20129;-82
2021/06/05 01:05:46;;;;;;;18.73;16.75;;;19.20;90.70;;;;;;2070869;28;20025;-82
2021/06/05 01:06:52;;;;;;;18.65;16.73;;;19.10;90.80;;;;;;2073867;28;20037;-82
2021/06/05 01:07:59;;;;;;;19.42;17.33;;;19.00;90.80;;;;;;2078114;28;20026;-82
2021/06/05 01:09:33;;;;;;;19.58;17.48;;;19.00;90.90;;;;;;2081566;28;20510;-82
2021/06/05 01:10:36;;;;;;;18.58;15.60;;;19.00;91.00;;;;;;2078109;28;20396;-81
2021/06/05 01:12:13;;;;;;;18.10;15.65;;;18.90;91.00;;;;;;2080339;28;20025;-82
2021/06/05 01:13:22;;;;;;;15.93;14.23;;;18.90;91.00;;;;;;2075127;28;20480;-82
2021/06/05 01:14:34;;;;;;;14.80;13.30;;;18.90;91.10;;;;;;2077101;28;20022;-82
2021/06/05 01:16:03;;;;;;;16.50;14.73;;;18.90;91.10;;;;;;2083771;28;20025;-82
2021/06/05 01:17:09;;;;;;;15.70;13.90;;;18.90;91.10;;;;;;2075774;28;20041;-82
2021/06/05 01:18:17;;;;;;;16.27;14.38;;;18.90;91.10;;;;;;2071418;28;20030;-83
2021/06/05 01:19:43;;;;;;;17.02;14.88;;;18.90;91.10;;;;;;2077116;28;20029;-82
2021/06/05 01:20:54;;;;;;;18.38;16.35;;;18.90;91.00;;;;;;2074798;28;20109;-82
2021/06/05 01:22:11;;;;;;;16.42;14.38;;;18.90;91.00;;;;;;2075880;28;20033;-82
2021/06/05 01:23:41;;;;;;;16.10;14.40;;;18.90;91.00;;;;;;2077506;28;20117;-82
2021/06/05 01:25:07;;;;;;;16.33;14.60;;;18.80;91.00;;;;;;2088759;28;20013;-81
2021/06/05 01:26:19;;;;;;;16.08;14.30;;;18.80;91.00;;;;;;2088014;28;20081;-82
2021/06/05 01:27:33;;;;;;;17.05;14.57;;;18.80;91.00;;;;;;2087583;28;20041;-83
2021/06/05 01:28:43;;;;;;;15.27;13.60;;;18.80;91.10;;;;;;2094981;28;20017;-83
2021/06/05 01:29:49;;;;;;;17.52;15.50;;;18.80;91.10;;;;;;2088178;28;20068;-84
2021/06/05 01:30:53;;;;;;;16.55;14.68;;;18.80;91.10;;;;;;2080459;28;20052;-83
2021/06/05 01:32:01;;;;;;;16.65;14.57;;;18.80;91.10;;;;;;2082186;28;20387;-84
2021/06/05 01:33:02;;;;;;;16.52;14.82;;;18.80;91.20;;;;;;2076291;28;20026;-84
2021/06/05 01:34:04;;;;;;;17.15;15.32;;;18.80;91.20;;;;;;2089063;28;20025;-84
2021/06/05 01:35:06;;;;;;;16.95;14.57;;;18.90;91.20;;;;;;2091036;28;20017;-83
2021/06/05 01:36:10;;;;;;;17.02;15.23;;;18.90;91.20;;;;;;2087027;28;20014;-82
2021/06/05 01:37:13;;;;;;;17.95;15.48;;;18.90;91.30;;;;;;2083075;28;20156;-83
2021/06/05 01:38:15;;;;;;;18.10;15.90;;;18.90;91.30;;;;;;2084244;28;20078;-83
2021/06/05 01:39:21;;;;;;;17.40;15.50;;;18.90;91.30;;;;;;2077044;28;20025;-83
2021/06/05 01:40:25;;;;;;;17.05;15.25;;;18.90;91.30;;;;;;2074567;28;20507;-83
2021/06/05 01:41:29;;;;;;;17.75;15.85;;;18.90;91.30;;;;;;2075345;28;20071;-83
2021/06/05 01:42:34;;;;;;;17.63;15.55;;;18.90;91.30;;;;;;2078410;28;20017;-83
2021/06/05 01:43:36;;;;;;;17.33;15.55;;;18.90;91.30;;;;;;2080434;28;20079;-83
2021/06/05 01:44:39;;;;;;;18.30;16.25;;;18.90;91.30;;;;;;2072869;28;20060;-83
2021/06/05 01:45:42;;;;;;;18.55;16.58;;;18.90;91.30;;;;;;2073491;28;20036;-83
2021/06/05 01:46:49;;;;;;;19.23;15.98;;;19.00;91.30;;;;;;2082410;28;20037;-84
2021/06/05 01:47:54;;;;;;;18.35;16.35;;;19.00;91.30;;;;;;2077442;28;20134;-83
2021/06/05 01:48:55;;;;;;;18.70;16.33;;;19.00;91.30;;;;;;2072804;28;20526;-83
2021/06/05 01:49:56;;;;;;;20.23;18.02;;;19.00;91.30;;;;;;2074851;28;20029;-83
2021/06/05 01:51:02;;;;;;;23.17;20.35;;;19.00;91.20;;;;;;2069273;28;20053;-83
2021/06/05 01:52:07;;;;;;;21.88;19.52;;;19.00;91.20;;;;;;2067660;28;20025;-83
2021/06/05 01:53:25;;;;;;;24.55;20.58;;;18.90;91.20;;;;;;2076166;28;20101;-82
2021/06/05 01:54:36;;;;;;;25.27;21.27;;;18.80;91.20;;;;;;2089541;28;20030;-83
2021/06/05 01:56:09;;;;;;;25.45;21.88;;;18.80;91.20;;;;;;2090391;28;20085;-82
2021/06/05 01:57:15;;;;;;;26.48;22.02;;;18.70;91.20;;;;;;2088881;28;20025;-83
2021/06/05 01:58:19;;;;;;;24.85;20.85;;;18.60;91.20;;;;;;2087608;28;20033;-83
2021/06/05 01:59:21;;;;;;;25.17;21.60;;;18.60;91.30;;;;;;2077984;28;20059;-83
2021/06/05 02:00:35;;;;;;;27.23;22.10;;;18.60;91.30;;;;;;2078290;28;20124;-83
2021/06/05 02:01:35;;;;;;;25.67;21.77;;;18.60;91.40;;;;;;2082353;28;20021;-83
2021/06/05 02:02:36;;;;;;;27.88;22.15;;;18.60;91.40;;;;;;2078130;28;20032;-83
2021/06/05 02:03:37;;;;;;;24.70;21.80;;;18.60;91.40;;;;;;2067113;28;20030;-84
2021/06/05 02:04:38;;;;;;;26.35;23.02;;;18.60;91.40;;;;;;2071184;28;20555;-83
2021/06/05 02:05:40;;;;;;;27.70;23.67;;;18.60;91.40;;;;;;2067868;28;20026;-83
2021/06/05 02:06:43;;;;;;;27.33;22.77;;;18.60;91.30;;;;;;2075702;28;20037;-83
2021/06/05 02:07:45;;;;;;;26.80;22.90;;;18.60;91.30;;;;;;2073909;28;20018;-84
2021/06/05 02:08:46;;;;;;;29.15;23.30;;;18.60;91.30;;;;;;2076004;28;20026;-83
2021/06/05 02:09:50;;;;;;;28.90;24.05;;;18.60;91.40;;;;;;2062087;28;20490;-84
2021/06/05 02:10:56;;;;;;;29.08;23.95;;;18.60;91.40;;;;;;2069546;28;20041;-83
2021/06/05 02:12:26;;;;;;;27.70;22.80;;;18.60;91.40;;;;;;2085080;28;20414;-84
2021/06/05 02:13:39;;;;;;;26.88;22.42;;;18.60;91.30;;;;;;2075010;28;20037;-84
2021/06/05 02:14:50;;;;;;;26.90;22.17;;;18.50;91.30;;;;;;2082802;28;20025;-84
2021/06/05 02:15:59;;;;;;;26.45;21.95;;;18.50;91.30;;;;;;2073926;28;20060;-84
2021/06/05 02:17:00;;;;;;;29.17;23.65;;;18.50;91.30;;;;;;2074214;28;20072;-83
2021/06/05 02:18:06;;;;;;;29.23;22.67;;;18.50;91.30;;;;;;2077001;28;20115;-84
2021/06/05 02:19:16;;;;;;;27.73;23.00;;;18.50;91.30;;;;;;2068075;28;20026;-84
2021/06/05 02:20:29;;;;;;;28.55;23.23;;;18.50;91.30;;;;;;2077328;28;20025;-84
2021/06/05 02:21:33;;;;;;;29.77;24.30;;;18.50;91.30;;;;;;2080145;28;20466;-84
2021/06/05 02:22:36;;;;;;;28.50;23.58;;;18.50;91.30;;;;;;2080262;28;20036;-84
2021/06/05 02:23:42;;;;;;;28.60;23.08;;;18.40;91.30;;;;;;2068022;28;20022;-84
2021/06/05 02:24:46;;;;;;;27.30;23.25;;;18.40;91.30;;;;;;2076754;28;20446;-84
2021/06/05 02:25:47;;;;;;;28.70;23.60;;;18.40;91.40;;;;;;2083646;28;20067;-83
2021/06/05 02:26:49;;;;;;;27.85;22.95;;;18.40;91.40;;;;;;2072844;28;20045;-84
2021/06/05 02:27:53;;;;;;;28.42;23.42;;;18.40;91.50;;;;;;2071682;28;20068;-84
2021/06/05 02:28:57;;;;;;;28.58;23.13;;;18.40;91.50;;;;;;2080328;28;20099;-83
2021/06/05 02:30:00;;;;;;;29.67;23.90;;;18.40;91.50;;;;;;2075060;28;20030;-84
2021/06/05 02:31:01;;;;;;;29.27;23.98;;;18.40;91.50;;;;;;2071062;28;20030;-84
2021/06/05 02:32:05;;;;;;;30.42;23.85;;;18.40;91.50;;;;;;2063863;28;20030;-83
2021/06/05 02:33:06;;;;;;;32.22;25.13;;;18.40;91.50;;;;;;2070595;28;20104;-84
2021/06/05 02:34:11;;;;;;;33.15;25.33;;;18.30;91.40;;;;;;2075735;28;20381;-83
2021/06/05 02:35:17;;;;;;;30.42;24.70;;;18.30;91.40;;;;;;2070136;28;20030;-84
2021/06/05 02:36:18;;;;;;;32.15;25.17;;;18.20;91.30;;;;;;2081209;28;20021;-83
2021/06/05 02:37:23;;;;;;;30.83;24.63;;;18.20;91.70;;;;;;2069466;28;20033;-83
2021/06/05 02:38:24;;;;;;;31.70;25.10;;;18.20;91.40;;;;;;2065360;28;20476;-83
2021/06/05 02:39:26;;;;;;;34.08;26.13;;;18.20;91.40;;;;;;2079960;28;20057;-83
2021/06/05 02:40:33;;;;;;;37.83;27.10;;;18.10;91.40;;;;;;2079433;28;20079;-83
2021/06/05 02:41:34;;;;;;;33.92;26.25;;;18.10;91.40;;;;;;2069625;28;20029;-83
2021/06/05 02:42:37;;;;;;;33.33;25.85;;;18.10;91.40;;;;;;2073663;28;20026;-83
2021/06/05 02:43:41;;;;;;;33.42;26.30;;;18.00;91.40;;;;;;2077340;28;20756;-84
2021/06/05 02:44:45;;;;;;;33.13;25.50;;;18.00;91.40;;;;;;2079504;28;20021;-83
2021/06/05 02:45:53;;;;;;;33.53;26.35;;;18.00;91.50;;;;;;2078854;28;20356;-84
2021/06/05 02:46:56;;;;;;;34.10;26.52;;;17.90;91.50;;;;;;2076951;28;21636;-83
2021/06/05 02:48:00;;;;;;;33.95;25.95;;;17.90;91.50;;;;;;2080285;28;20029;-83
2021/06/05 02:49:06;;;;;;;34.67;26.45;;;17.90;91.50;;;;;;2072073;28;20049;-83
2021/06/05 02:50:08;;;;;;;33.40;26.55;;;17.90;91.50;;;;;;2074339;28;20044;-83
2021/06/05 02:51:10;;;;;;;35.83;27.00;;;17.90;91.50;;;;;;2061326;28;20081;-84
2021/06/05 02:52:28;;;;;;;34.25;26.60;;;17.90;91.50;;;;;;2069547;28;20029;-84
2021/06/05 02:53:29;;;;;;;34.45;26.13;;;17.90;91.50;;;;;;2079409;28;20610;-84
2021/06/05 02:54:30;;;;;;;37.70;27.92;;;17.90;91.50;;;;;;2071768;28;20030;-83
2021/06/05 02:55:31;;;;;;;32.92;25.60;;;17.90;91.50;;;;;;2074955;28;20558;-83
2021/06/05 02:56:32;;;;;;;33.72;25.92;;;17.90;91.50;;;;;;2071805;28;20123;-83
2021/06/05 02:57:33;;;;;;;35.22;26.13;;;17.90;91.50;;;;;;2071450;28;20026;-83
2021/06/05 02:58:34;;;;;;;34.78;25.98;;;17.90;91.60;;;;;;2079060;28;20457;-83
2021/06/05 02:59:34;;;;;;;36.83;26.70;;;17.90;91.60;;;;;;2075975;28;20025;-83
2021/06/05 03:00:43;;;;;;;35.17;27.23;;;17.90;91.60;;;;;;2070666;28;20085;-84
2021/06/05 03:01:44;;;;;;;33.42;26.27;;;17.90;91.50;;;;;;2069422;28;20562;-84
2021/06/05 03:02:45;;;;;;;37.67;26.75;;;17.90;91.50;;;;;;2070033;28;20136;-83
2021/06/05 03:03:46;;;;;;;37.10;27.02;;;17.90;91.50;;;;;;2069641;28;20045;-83
2021/06/05 03:04:47;;;;;;;38.58;27.77;;;17.90;91.50;;;;;;2066878;28;20033;-83
2021/06/05 03:05:52;;;;;;;38.92;28.25;;;17.90;91.50;;;;;;2061713;28;20033;-83
2021/06/05 03:06:54;;;;;;;40.22;28.25;;;17.90;91.50;;;;;;2075748;28;20038;-83
2021/06/05 03:07:55;;;;;;;40.50;28.70;;;17.90;91.50;;;;;;2073029;28;20034;-83
2021/06/05 03:08:57;;;;;;;39.42;28.98;;;17.90;91.50;;;;;;2072876;28;20069;-83
2021/06/05 03:09:58;;;;;;;38.17;28.05;;;17.80;91.40;;;;;;2075873;28;20046;-83
2021/06/05 03:11:00;;;;;;;41.35;28.77;;;17.80;91.40;;;;;;2070382;28;20440;-83
2021/06/05 03:12:03;;;;;;;41.22;29.00;;;17.80;91.40;;;;;;2068740;28;20049;-83
2021/06/05 03:13:07;;;;;;;41.22;29.67;;;17.70;91.40;;;;;;2074929;28;20030;-83
2021/06/05 03:14:08;;;;;;;41.03;28.63;;;17.70;91.40;;;;;;2076925;28;20542;-83
2021/06/05 03:15:10;;;;;;;42.72;29.70;;;17.70;91.50;;;;;;2079519;28;20107;-83
2021/06/05 03:16:12;;;;;;;42.63;29.13;;;17.60;91.50;;;;;;2071397;28;20071;-83
2021/06/05 03:17:13;;;;;;;44.67;31.10;;;17.60;91.50;;;;;;2073914;28;20028;-83
2021/06/05 03:18:16;;;;;;;43.08;30.38;;;17.60;91.50;;;;;;2074864;28;20484;-83
2021/06/05 03:19:16;;;;;;;41.85;29.38;;;17.50;91.50;;;;;;2069487;28;20018;-83
2021/06/05 03:20:21;;;;;;;43.20;30.35;;;17.50;91.50;;;;;;2071682;28;20499;-84
2021/06/05 03:21:22;;;;;;;41.45;29.77;;;17.50;91.50;;;;;;2065649;28;20083;-84
2021/06/05 03:22:23;;;;;;;45.53;30.55;;;17.50;91.50;;;;;;2063289;28;20040;-83
2021/06/05 03:23:26;;;;;;;44.88;31.20;;;17.50;91.50;;;;;;2063824;28;20027;-84
2021/06/05 03:24:27;;;;;;;40.33;29.00;;;17.40;91.50;;;;;;2070321;28;20427;-84
2021/06/05 03:25:28;;;;;;;41.17;28.27;;;17.40;91.50;;;;;;2069371;28;20121;-84
2021/06/05 03:26:28;;;;;;;43.88;29.00;;;17.40;91.60;;;;;;2070960;28;20033;-83
2021/06/05 03:27:29;;;;;;;41.83;28.90;;;17.40;91.60;;;;;;2055260;28;20385;-84
2021/06/05 03:28:32;;;;;;;41.30;28.33;;;17.40;91.60;;;;;;2061939;28;20023;-83
2021/06/05 03:29:33;;;;;;;42.75;29.92;;;17.40;91.60;;;;;;2068981;28;20038;-84
2021/06/05 03:30:36;;;;;;;44.08;30.60;;;17.40;91.60;;;;;;2062476;28;20030;-83
2021/06/05 03:31:38;;;;;;;43.10;29.40;;;17.40;91.50;;;;;;2072051;28;20030;-83
2021/06/05 03:32:39;;;;;;;44.53;31.25;;;17.40;91.50;;;;;;2071068;28;20128;-83
2021/06/05 03:33:40;;;;;;;42.13;29.00;;;17.40;91.50;;;;;;2071976;28;20468;-83
2021/06/05 03:34:41;;;;;;;42.35;29.20;;;17.30;91.50;;;;;;2076530;28;20035;-84
2021/06/05 03:35:41;;;;;;;44.20;30.23;;;17.30;91.50;;;;;;2073752;28;20501;-84
2021/06/05 03:36:42;;;;;;;43.42;30.77;;;17.30;91.50;;;;;;2078455;28;20108;-84
2021/06/05 03:37:43;;;;;;;43.35;29.80;;;17.30;91.50;;;;;;2066541;28;20620;-84
2021/06/05 03:38:44;;;;;;;46.45;31.10;;;17.30;91.80;;;;;;2076657;28;20030;-83
2021/06/05 03:39:45;;;;;;;44.40;29.48;;;17.30;91.60;;;;;;2079102;28;20026;-83
2021/06/05 03:40:45;;;;;;;40.20;28.50;;;17.30;91.60;;;;;;2070079;28;20407;-83
2021/06/05 03:41:46;;;;;;;41.00;27.85;;;17.30;91.60;;;;;;2061182;28;20503;-83
2021/06/05 03:42:47;;;;;;;45.55;29.52;;;17.30;91.60;;;;;;2066677;28;20452;-84
2021/06/05 03:43:48;;;;;;;41.70;28.15;;;17.30;91.60;;;;;;2080522;28;20076;-84
2021/06/05 03:44:48;;;;;;;42.63;27.83;;;17.30;91.60;;;;;;2064991;28;20500;-83
2021/06/05 03:45:50;;;;;;;39.35;27.65;;;17.30;91.60;;;;;;2058596;28;20690;-84
2021/06/05 03:46:50;;;;;;;43.20;28.90;;;17.30;91.60;;;;;;2073088;28;20040;-84
2021/06/05 03:47:54;;;;;;;43.38;28.08;;;17.30;91.50;;;;;;2080292;28;20029;-83
2021/06/05 03:48:55;;;;;;;41.88;28.08;;;17.30;91.60;;;;;;2074070;28;20037;-84
2021/06/05 03:49:56;;;;;;;40.22;27.42;;;17.30;91.60;;;;;;2063134;28;20061;-83
2021/06/05 03:50:56;;;;;;;45.35;28.55;;;17.40;91.60;;;;;;2063507;28;20034;-83
2021/06/05 03:51:57;;;;;;;40.42;27.52;;;17.30;91.50;;;;;;2054760;28;20081;-83
2021/06/05 03:52:58;;;;;;;40.63;27.15;;;17.30;91.50;;;;;;2061874;28;20563;-83
2021/06/05 03:53:59;;;;;;;42.42;27.42;;;17.30;91.50;;;;;;2068915;28;20030;-84
2021/06/05 03:54:59;;;;;;;44.13;27.50;;;17.30;91.50;;;;;;2070761;28;20552;-83
2021/06/05 03:56:01;;;;;;;40.60;27.17;;;17.30;91.50;;;;;;2070550;28;20565;-84
2021/06/05 03:57:02;;;;;;;39.97;26.70;;;17.30;91.50;;;;;;2068735;28;20022;-83
2021/06/05 03:58:03;;;;;;;43.17;28.20;;;17.20;91.50;;;;;;2065369;28;20125;-83
2021/06/05 03:59:04;;;;;;;46.40;28.17;;;17.30;91.50;;;;;;2067391;28;20528;-84
2021/06/05 04:00:08;;;;;;;47.95;27.98;;;17.30;91.50;;;;;;2077004;28;20084;-83
2021/06/05 04:01:18;;;;;;;47.75;28.98;;;17.30;91.50;;;;;;2076762;28;20025;-83
2021/06/05 04:02:23;;;;;;;44.20;27.17;;;17.30;91.50;;;;;;2077978;28;20029;-84
2021/06/05 04:03:23;;;;;;;40.90;26.45;;;17.20;91.50;;;;;;2075983;28;20491;-84
2021/06/05 04:04:24;;;;;;;43.63;27.25;;;17.30;91.50;;;;;;2073963;28;20030;-84
2021/06/05 04:05:25;;;;;;;45.72;27.58;;;17.30;91.50;;;;;;2084936;28;20590;-83
2021/06/05 04:06:28;;;;;;;46.20;28.88;;;17.30;91.50;;;;;;2076695;28;20067;-84
2021/06/05 04:07:28;;;;;;;41.95;27.48;;;17.20;91.50;;;;;;2071129;28;20413;-83
2021/06/05 04:08:29;;;;;;;44.92;28.45;;;17.20;91.50;;;;;;2070527;28;20146;-84
2021/06/05 04:09:29;;;;;;;46.85;28.88;;;17.20;91.50;;;;;;2063806;28;20077;-84
2021/06/05 04:10:30;;;;;;;45.78;28.00;;;17.20;91.50;;;;;;2067567;28;20276;-83
2021/06/05 04:11:33;;;;;;;43.63;27.73;;;17.20;91.50;;;;;;2069752;28;20487;-83
2021/06/05 04:12:34;;;;;;;43.65;27.42;;;17.30;91.60;;;;;;2074360;28;20021;-83
2021/06/05 04:13:35;;;;;;;43.75;26.92;;;17.30;91.60;;;;;;2079759;28;20034;-83
2021/06/05 04:14:36;;;;;;;51.63;30.00;;;17.30;91.60;;;;;;2075622;28;20029;-83
2021/06/05 04:15:37;;;;;;;44.05;27.70;;;17.30;91.50;;;;;;2073846;28;20057;-83
2021/06/05 04:16:38;;;;;;;42.95;27.15;;;17.30;91.50;;;;;;2063230;28;20108;-83
2021/06/05 04:17:39;;;;;;;46.53;27.58;;;17.30;91.50;;;;;;2061517;28;20027;-83
2021/06/05 04:18:41;;;;;;;43.78;26.55;;;17.40;91.60;;;;;;2074427;28;20502;-82
2021/06/05 04:19:42;;;;;;;43.30;26.92;;;17.40;91.50;;;;;;2068595;28;20052;-82
2021/06/05 04:20:44;;;;;;;45.22;27.23;;;17.40;91.50;;;;;;2076099;28;20617;-82
2021/06/05 04:21:44;;;;;;;44.40;26.42;;;17.40;91.50;;;;;;2076116;28;20021;-82
2021/06/05 04:22:45;;;;;;;44.63;27.40;;;17.50;91.50;;;;;;2074920;28;20077;-82
2021/06/05 04:23:47;;;;;;;43.35;26.42;;;17.50;91.50;;;;;;2071729;28;20447;-82
2021/06/05 04:24:47;;;;;;;45.20;28.20;;;17.40;91.40;;;;;;2065402;28;20023;-82
2021/06/05 04:25:49;;;;;;;42.83;26.88;;;17.40;91.40;;;;;;2077849;28;20033;-82
2021/06/05 04:26:51;;;;;;;44.58;27.08;;;17.40;91.40;;;;;;2072841;28;20451;-82
2021/06/05 04:27:52;;;;;;;40.35;26.00;;;17.40;91.40;;;;;;2080063;28;20119;-82
2021/06/05 04:28:52;;;;;;;41.15;25.65;;;17.40;91.50;;;;;;2078605;28;20033;-82
2021/06/05 04:29:53;;;;;;;42.63;26.20;;;17.40;91.60;;;;;;2064231;28;20552;-82
2021/06/05 04:30:55;;;;;;;41.50;25.63;;;17.40;91.60;;;;;;2069387;28;20034;-82
2021/06/05 04:31:56;;;;;;;41.67;26.38;;;17.50;91.90;;;;;;2069248;28;20180;-81
2021/06/05 04:32:57;;;;;;;42.22;26.42;;;17.40;91.50;;;;;;2079739;28;20467;-82
2021/06/05 04:33:57;;;;;;;46.78;28.02;;;17.50;91.50;;;;;;2071056;28;20137;-82
2021/06/05 04:34:58;;;;;;;41.75;25.52;;;17.50;91.50;;;;;;2070267;28;20049;-82
2021/06/05 04:36:01;;;;;;;40.85;26.23;;;17.50;91.40;;;;;;2062939;28;20035;-82
2021/06/05 04:37:03;;;;;;;41.85;26.35;;;17.50;91.40;;;;;;2056271;28;20034;-82
2021/06/05 04:38:05;;;;;;;45.25;27.30;;;17.50;91.50;;;;;;2079422;28;20026;-83
2021/06/05 04:39:06;;;;;;;47.75;28.67;;;17.50;91.40;;;;;;2075707;28;20026;-82
2021/06/05 04:40:07;;;;;;;44.90;27.20;;;17.50;91.40;;;;;;2081630;28;20128;-82
2021/06/05 04:41:11;;;;;;;41.97;25.58;;;17.50;91.40;;;;;;2061573;28;20027;-83
2021/06/05 04:42:11;;;;;;;45.53;28.25;;;17.50;91.40;;;;;;2070023;28;20026;-83
2021/06/05 04:43:14;;;;;;;43.08;27.45;;;17.50;91.40;;;;;;2081198;28;20068;-82
2021/06/05 04:44:15;;;;;;;43.38;25.73;;;17.50;91.30;;;;;;2081368;28;20034;-82
2021/06/05 04:45:19;;;;;;;40.08;25.13;;;17.50;91.30;;;;;;2072701;28;20026;-84
2021/06/05 04:46:19;;;;;;;43.97;26.83;;;17.50;91.30;;;;;;2072027;28;20025;-83
2021/06/05 04:47:20;;;;;;;42.60;26.13;;;17.50;91.30;;;;;;2078091;28;20587;-82
2021/06/05 04:48:23;;;;;;;43.55;25.67;;;17.50;91.30;;;;;;2074768;28;20029;-83
2021/06/05 04:49:24;;;;;;;38.90;24.73;;;17.50;91.30;;;;;;2081092;28;20109;-83
2021/06/05 04:50:30;;;;;;;38.75;24.30;;;17.50;91.40;;;;;;2071798;28;20022;-83
2021/06/05 04:51:31;;;;;;;39.88;24.42;;;17.60;91.40;;;;;;2075996;28;20022;-81
2021/06/05 04:52:32;;;;;;;40.25;24.30;;;17.60;91.40;;;;;;2077438;28;20030;-82
2021/06/05 04:53:34;;;;;;;41.83;24.98;;;17.60;91.40;;;;;;2077372;28;20033;-82
2021/06/05 04:54:34;;;;;;;38.38;24.35;;;17.70;91.40;;;;;;2076561;28;20029;-82
2021/06/05 04:55:36;;;;;;;41.20;25.45;;;17.70;91.40;;;;;;2076673;28;20121;-82
2021/06/05 04:56:43;;;;;;;38.50;23.98;;;17.70;91.30;;;;;;2072886;28;20496;-82
2021/06/05 04:57:44;;;;;;;38.95;23.50;;;17.70;91.30;;;;;;2067554;28;20625;-82
2021/06/05 04:58:44;;;;;;;39.40;24.38;;;17.70;91.30;;;;;;2079039;28;20033;-81
2021/06/05 04:59:45;;;;;;;41.83;25.63;;;17.80;91.30;;;;;;2081361;28;20117;-82
2021/06/05 05:00:49;;;;;;;38.58;23.65;;;17.80;91.30;;;;;;2069582;28;20033;-82
2021/06/05 05:01:50;;;;;;;40.60;24.00;;;17.80;91.30;;;;;;2078446;28;20017;-82
2021/06/05 05:02:51;;;;;;;37.95;23.55;;;17.80;91.30;;;;;;2075577;28;20511;-82
2021/06/05 05:03:52;;;;;;;40.58;24.02;;;17.80;91.30;;;;;;2076529;28;20041;-82
2021/06/05 05:04:53;;;;;;;38.75;23.58;;;17.80;91.30;;;;;;2074550;28;20034;-82
2021/06/05 05:06:00;;;;;;;36.67;23.30;;;17.80;91.20;;;;;;2074750;28;20030;-82
2021/06/05 05:07:01;;;;;;;38.10;22.83;;;17.90;91.30;;;;;;2083924;28;20033;-82
2021/06/05 05:08:02;;;;;;;38.45;24.08;;;17.90;91.20;;;;;;2074119;28;20060;-82
2021/06/05 05:09:09;;;;;;;35.75;23.30;;;17.90;91.20;;;;;;2074089;28;20199;-82
2021/06/05 05:10:10;;;;;;;38.83;23.35;;;17.90;91.20;;;;;;2073686;28;20083;-82
2021/06/05 05:11:10;;;;;;;34.97;21.30;;;17.90;91.20;;;;;;2078681;28;20092;-81
2021/06/05 05:12:12;;;;;;;36.03;22.45;;;17.90;91.20;;;;;;2064018;28;20038;-82
2021/06/05 05:13:16;;;;;;;37.67;23.40;;;17.90;91.30;;;;;;2064408;28;20088;-82
2021/06/05 05:14:18;;;;;;;35.10;21.33;;;17.90;91.20;;;;;;2084770;28;20091;-82
2021/06/05 05:15:20;;;;;;;36.67;22.27;;;17.90;91.10;;;;;;2077259;28;20037;-82
2021/06/05 05:16:21;;;;;;;33.42;21.63;;;17.90;91.20;;;;;;2071562;28;20049;-83
2021/06/05 05:17:22;;;;;;;36.00;22.13;;;17.90;91.20;;;;;;2073211;28;20103;-82
2021/06/05 05:18:24;;;;;;;36.40;22.63;;;17.80;91.10;;;;;;2078855;28;20033;-82
2021/06/05 05:19:25;;;;;;;37.42;23.30;;;17.80;91.10;;;;;;2075179;28;20117;-82
2021/06/05 05:20:33;;;;;;;37.85;23.08;;;17.80;91.10;;;;;;2079051;28;20487;-81
2021/06/05 05:21:34;;;;;;;38.78;23.73;;;17.80;91.10;;;;;;2075006;28;20379;-81
2021/06/05 05:22:37;;;;;;;36.58;22.45;;;17.70;91.20;;;;;;2071706;28;20618;-81